Time;durP1;ratioP1;P1;durP2;ratioP2;P2;SDS_P1;SDS_P2;PMS_P1;PMS_P2;Temp;Humidity;BMP_temperature;BMP_pressure;BME280_temperature;BME280_humidity;BME280_pressure;Samples;Min_cycle;Max_cycle;Signal;HPM_P1;HPM_P2
2023/07/09 00:02:02;;;;;;;;;;;23.10;99.90;;;;;;4840944;29;20478;-80
2023/07/09 00:04:29;;;;;;;6.38;3.08;;;23.10;99.90;;;;;;4836921;29;19928;-80
2023/07/09 00:07:01;;;;;;;8.43;3.05;;;23.00;99.90;;;;;;4834620;29;20052;-78
2023/07/09 00:09:28;;;;;;;4.07;2.80;;;23.00;99.90;;;;;;4854314;29;20397;-78
2023/07/09 00:11:55;;;;;;;5.00;2.70;;;23.00;99.90;;;;;;4845797;29;20103;-79
2023/07/09 00:14:22;;;;;;;3.97;2.63;;;22.90;99.90;;;;;;4837191;29;20050;-79
2023/07/09 00:16:49;;;;;;;6.55;2.80;;;22.90;99.90;;;;;;4837377;29;20042;-79
2023/07/09 00:19:23;;;;;;;3.63;2.50;;;22.90;99.90;;;;;;4834089;29;20058;-79
2023/07/09 00:21:54;;;;;;;4.28;2.63;;;22.80;99.90;;;;;;4831936;29;20054;-79
2023/07/09 00:24:21;;;;;;;5.95;2.88;;;22.80;99.90;;;;;;4837116;29;20139;-78
2023/07/09 00:26:48;;;;;;;7.05;2.97;;;22.80;99.90;;;;;;4842155;29;20070;-79
2023/07/09 00:29:16;;;;;;;7.10;3.20;;;22.80;99.90;;;;;;4818779;29;20111;-79
2023/07/09 00:31:43;;;;;;;6.03;2.65;;;22.70;99.90;;;;;;4852251;29;20051;-79
2023/07/09 00:34:12;;;;;;;5.07;2.88;;;22.70;99.90;;;;;;4819845;29;20050;-79
2023/07/09 00:36:43;;;;;;;7.13;3.67;;;22.70;99.90;;;;;;4845340;29;20051;-79
2023/07/09 00:39:18;;;;;;;8.73;3.10;;;22.60;99.90;;;;;;4838443;29;20054;-79
2023/07/09 00:41:48;;;;;;;6.15;2.80;;;22.60;99.90;;;;;;4840622;29;20065;-79
2023/07/09 00:44:30;;;;;;;8.45;3.20;;;22.60;99.90;;;;;;4833112;29;20061;-78
2023/07/09 00:47:03;;;;;;;6.72;2.95;;;22.50;99.90;;;;;;4849874;29;20056;-78
2023/07/09 00:49:34;;;;;;;5.20;2.75;;;22.50;99.90;;;;;;4832030;29;20405;-79
2023/07/09 00:52:29;;;;;;;6.15;2.40;;;22.50;99.90;;;;;;4831411;29;20053;-78
2023/07/09 00:54:59;;;;;;;4.32;2.28;;;22.40;99.90;;;;;;4836277;29;20050;-79
2023/07/09 00:57:26;;;;;;;6.63;3.00;;;22.40;99.90;;;;;;4837292;29;20073;-79
2023/07/09 01:00:02;;;;;;;7.60;2.60;;;22.40;99.90;;;;;;4833738;29;20572;-79
2023/07/09 01:02:29;;;;;;;6.05;2.78;;;22.40;99.90;;;;;;4835319;29;20150;-79
2023/07/09 01:05:00;;;;;;;5.43;2.40;;;22.30;99.90;;;;;;4831492;29;20049;-79
2023/07/09 01:07:30;;;;;;;4.65;2.85;;;22.30;99.90;;;;;;4832760;29;20060;-78
2023/07/09 01:09:57;;;;;;;6.68;2.90;;;22.30;99.90;;;;;;4836511;29;20106;-78
2023/07/09 01:12:25;;;;;;;6.32;2.60;;;22.30;99.90;;;;;;4836185;29;20402;-79
2023/07/09 01:14:54;;;;;;;5.65;2.60;;;22.20;99.90;;;;;;4833167;29;20046;-78
2023/07/09 01:17:21;;;;;;;6.20;2.65;;;22.20;99.90;;;;;;4831528;29;20050;-79
2023/07/09 01:19:50;;;;;;;4.20;2.28;;;22.20;99.90;;;;;;4816583;29;20056;-79
2023/07/09 01:22:18;;;;;;;7.90;2.55;;;22.20;99.90;;;;;;4833951;29;20064;-79
2023/07/09 01:24:47;;;;;;;8.18;3.30;;;22.10;99.90;;;;;;4839318;29;20050;-79
2023/07/09 01:27:15;;;;;;;6.13;3.00;;;22.10;99.90;;;;;;4837738;29;20098;-79
2023/07/09 01:29:46;;;;;;;4.85;2.67;;;22.10;99.90;;;;;;4831641;29;20058;-78
2023/07/09 01:32:14;;;;;;;5.38;2.67;;;22.00;99.90;;;;;;4847350;29;20527;-79
2023/07/09 01:34:40;;;;;;;5.40;2.70;;;22.00;99.90;;;;;;4832449;29;20226;-78
2023/07/09 01:37:08;;;;;;;7.90;2.75;;;22.00;99.90;;;;;;4827252;29;20054;-79
2023/07/09 01:39:35;;;;;;;7.03;2.85;;;22.00;99.90;;;;;;4835237;29;20053;-78
2023/07/09 01:42:06;;;;;;;3.95;2.40;;;21.90;99.90;;;;;;4837192;29;20544;-78
2023/07/09 01:44:32;;;;;;;7.72;2.92;;;21.90;99.90;;;;;;4830877;29;20272;-78
2023/07/09 01:46:59;;;;;;;5.78;2.45;;;21.80;99.90;;;;;;4834016;29;20050;-78
2023/07/09 01:49:29;;;;;;;4.22;2.75;;;21.80;99.90;;;;;;4833715;29;20433;-78
2023/07/09 01:51:56;;;;;;;3.72;2.45;;;21.80;99.90;;;;;;4829890;29;20504;-79
2023/07/09 01:54:23;;;;;;;6.28;3.00;;;21.80;99.90;;;;;;4835430;29;20089;-78
2023/07/09 01:56:50;;;;;;;5.18;2.63;;;21.70;99.90;;;;;;4837993;29;20102;-79
2023/07/09 01:59:16;;;;;;;6.38;2.90;;;21.70;99.90;;;;;;4829896;29;20146;-79
2023/07/09 02:01:43;;;;;;;6.05;2.80;;;21.70;99.90;;;;;;4832705;29;20054;-78
2023/07/09 02:04:10;;;;;;;5.40;2.40;;;21.60;99.90;;;;;;4833913;29;20084;-78
2023/07/09 02:06:37;;;;;;;4.07;2.60;;;21.60;99.90;;;;;;4827557;29;20146;-79
2023/07/09 02:09:03;;;;;;;5.38;3.13;;;21.50;99.90;;;;;;4839431;29;20097;-78
2023/07/09 02:11:30;;;;;;;6.00;3.35;;;21.60;99.90;;;;;;4842606;29;20053;-79
2023/07/09 02:13:57;;;;;;;4.47;2.88;;;21.50;99.90;;;;;;4821517;29;20049;-79
2023/07/09 02:16:23;;;;;;;8.57;2.88;;;21.50;99.90;;;;;;4834789;29;20079;-79
2023/07/09 02:18:50;;;;;;;5.00;2.50;;;21.50;99.90;;;;;;4838866;29;20050;-79
2023/07/09 02:21:17;;;;;;;5.40;3.00;;;21.50;99.90;;;;;;4834414;29;20507;-78
2023/07/09 02:23:44;;;;;;;5.90;2.97;;;21.50;99.90;;;;;;4840140;29;20046;-79
2023/07/09 02:26:10;;;;;;;6.22;3.50;;;21.50;99.90;;;;;;4824214;29;20045;-78
2023/07/09 02:28:37;;;;;;;4.07;2.50;;;21.40;99.90;;;;;;4836453;29;20059;-79
2023/07/09 02:31:04;;;;;;;6.60;2.90;;;21.40;99.90;;;;;;4836789;29;20081;-78
2023/07/09 02:33:32;;;;;;;6.80;3.38;;;21.40;99.90;;;;;;4839845;29;20069;-78
2023/07/09 02:35:59;;;;;;;4.38;2.33;;;21.30;99.90;;;;;;4835241;29;20041;-79
2023/07/09 02:38:27;;;;;;;6.97;3.30;;;21.30;99.90;;;;;;4838020;29;20145;-79
2023/07/09 02:40:53;;;;;;;5.75;2.90;;;21.30;99.90;;;;;;4841194;29;20113;-80
2023/07/09 02:43:20;;;;;;;4.05;2.58;;;21.30;99.90;;;;;;4836621;29;20050;-79
2023/07/09 02:45:47;;;;;;;4.30;2.53;;;21.20;99.90;;;;;;4835219;29;20172;-79
2023/07/09 02:48:13;;;;;;;4.38;2.65;;;21.20;99.90;;;;;;4841114;29;20050;-79
2023/07/09 02:50:40;;;;;;;3.42;2.50;;;21.20;99.90;;;;;;4840247;29;20053;-79
2023/07/09 02:53:07;;;;;;;4.20;2.55;;;21.20;99.90;;;;;;4822670;29;20046;-79
2023/07/09 02:55:34;;;;;;;5.75;2.60;;;21.10;99.90;;;;;;4839361;29;20046;-80
2023/07/09 02:58:01;;;;;;;6.47;3.10;;;21.10;99.90;;;;;;4823427;29;20067;-79
2023/07/09 03:00:28;;;;;;;5.85;3.17;;;21.10;99.90;;;;;;4834484;29;20102;-78
2023/07/09 03:02:55;;;;;;;7.60;3.28;;;21.10;99.90;;;;;;4841121;29;20440;-79
2023/07/09 03:05:22;;;;;;;5.72;3.10;;;21.10;99.90;;;;;;4843081;29;20061;-79
2023/07/09 03:07:48;;;;;;;3.85;2.80;;;21.00;99.90;;;;;;4822942;29;20061;-79
2023/07/09 03:10:16;;;;;;;3.92;2.47;;;21.00;99.90;;;;;;4837148;29;20050;-80
2023/07/09 03:12:42;;;;;;;5.95;2.80;;;21.00;99.90;;;;;;4838694;29;20050;-79
2023/07/09 03:15:09;;;;;;;5.82;2.75;;;21.00;99.90;;;;;;4816914;29;20153;-79
2023/07/09 03:17:36;;;;;;;6.78;2.80;;;20.90;99.90;;;;;;4840174;29;20083;-80
2023/07/09 03:20:04;;;;;;;7.50;3.25;;;20.90;99.90;;;;;;4839536;29;20046;-79
2023/07/09 03:22:31;;;;;;;5.22;2.92;;;20.90;99.90;;;;;;4839558;29;20054;-79
2023/07/09 03:24:57;;;;;;;3.70;3.03;;;20.90;99.90;;;;;;4841140;29;20068;-80
2023/07/09 03:27:24;;;;;;;5.97;3.00;;;20.90;99.90;;;;;;4838839;29;20050;-79
2023/07/09 03:29:51;;;;;;;6.72;2.97;;;20.90;99.90;;;;;;4834031;29;20054;-80
2023/07/09 03:32:17;;;;;;;9.77;2.85;;;20.90;99.90;;;;;;4839237;29;20088;-80
2023/07/09 03:34:44;;;;;;;6.40;3.13;;;20.90;99.90;;;;;;4842781;29;20060;-78
2023/07/09 03:37:11;;;;;;;4.28;3.10;;;20.80;99.90;;;;;;4845056;29;20050;-79
2023/07/09 03:39:38;;;;;;;3.53;2.35;;;20.80;99.90;;;;;;4841254;29;20083;-80
2023/07/09 03:42:05;;;;;;;5.47;3.13;;;20.80;99.90;;;;;;4843506;29;20519;-79
2023/07/09 03:44:31;;;;;;;6.32;2.97;;;20.80;99.90;;;;;;4838742;29;20050;-79
2023/07/09 03:46:58;;;;;;;4.35;3.22;;;20.80;99.90;;;;;;4843115;29;20058;-79
2023/07/09 03:49:25;;;;;;;7.53;3.03;;;20.70;99.90;;;;;;4837966;29;20073;-79
2023/07/09 03:51:52;;;;;;;6.68;2.92;;;20.70;99.90;;;;;;4840815;29;20093;-80
2023/07/09 03:54:18;;;;;;;4.93;2.70;;;20.70;99.90;;;;;;4835927;29;20410;-80
2023/07/09 03:56:45;;;;;;;7.10;3.40;;;20.70;99.90;;;;;;4838163;29;20080;-80
2023/07/09 03:59:12;;;;;;;4.70;2.63;;;20.70;99.90;;;;;;4817203;29;20054;-79
2023/07/09 04:01:38;;;;;;;4.45;2.60;;;20.70;99.90;;;;;;4819358;29;20508;-80
2023/07/09 04:04:05;;;;;;;5.78;2.95;;;20.70;99.90;;;;;;4841303;29;20054;-79
2023/07/09 04:06:32;;;;;;;4.82;2.88;;;20.70;99.90;;;;;;4839352;29;20469;-80
2023/07/09 04:08:58;;;;;;;5.97;3.15;;;20.70;99.90;;;;;;4835639;29;20083;-80
2023/07/09 04:11:25;;;;;;;4.30;3.03;;;20.60;99.90;;;;;;4837275;29;20141;-79
2023/07/09 04:13:52;;;;;;;7.60;2.92;;;20.60;99.90;;;;;;4834223;29;20520;-80
2023/07/09 04:16:19;;;;;;;5.72;2.85;;;20.60;99.90;;;;;;4833326;29;20050;-80
2023/07/09 04:18:45;;;;;;;10.57;3.30;;;20.60;99.90;;;;;;4825168;29;20054;-79
2023/07/09 04:21:12;;;;;;;4.85;3.15;;;20.60;99.90;;;;;;4842210;29;20049;-80
2023/07/09 04:23:39;;;;;;;4.70;3.08;;;20.60;99.90;;;;;;4833024;29;20050;-79
2023/07/09 04:26:08;;;;;;;6.30;3.17;;;20.60;99.90;;;;;;4837633;29;20054;-79
2023/07/09 04:28:35;;;;;;;4.75;2.50;;;20.60;99.90;;;;;;4835064;29;20058;-79
2023/07/09 04:31:02;;;;;;;5.40;3.05;;;20.70;99.90;;;;;;4831760;29;20078;-79
2023/07/09 04:33:29;;;;;;;4.90;3.00;;;20.70;99.90;;;;;;4838367;29;20066;-79
2023/07/09 04:35:57;;;;;;;10.07;2.70;;;20.70;99.90;;;;;;4841634;29;20081;-80
2023/07/09 04:38:23;;;;;;;4.75;2.90;;;20.70;99.90;;;;;;4836885;29;20687;-80
2023/07/09 04:40:50;;;;;;;8.32;3.35;;;20.70;99.90;;;;;;4836130;29;20112;-79
2023/07/09 04:43:17;;;;;;;5.35;2.83;;;20.80;99.90;;;;;;4836323;29;20081;-79
2023/07/09 04:45:43;;;;;;;5.25;2.65;;;20.80;99.90;;;;;;4836435;29;20058;-80
2023/07/09 04:48:10;;;;;;;6.90;3.30;;;20.80;99.90;;;;;;4838702;29;20681;-80
2023/07/09 04:50:37;;;;;;;8.55;3.17;;;20.90;99.90;;;;;;4839685;29;20305;-80
2023/07/09 04:53:04;;;;;;;7.05;3.65;;;20.90;99.90;;;;;;4836332;29;20473;-80
2023/07/09 04:55:30;;;;;;;8.23;3.53;;;20.90;99.90;;;;;;4835976;29;20050;-80
2023/07/09 04:57:57;;;;;;;6.28;2.65;;;21.00;99.90;;;;;;4836375;29;20080;-80
2023/07/09 05:00:24;;;;;;;5.40;2.97;;;21.10;99.90;;;;;;4829434;29;20046;-80
2023/07/09 05:02:51;;;;;;;10.32;3.13;;;21.20;99.90;;;;;;4836637;29;20054;-81
2023/07/09 05:05:18;;;;;;;5.47;2.90;;;21.40;99.90;;;;;;4839563;29;20481;-81
2023/07/09 05:07:44;;;;;;;7.47;2.53;;;21.50;99.90;;;;;;4848074;29;20074;-81
2023/07/09 05:10:11;;;;;;;4.47;2.67;;;21.60;99.90;;;;;;4834979;29;20054;-80
2023/07/09 05:12:48;;;;;;;5.63;2.83;;;21.80;99.90;;;;;;4836737;29;20621;-80
2023/07/09 05:15:15;;;;;;;5.03;2.83;;;22.00;99.90;;;;;;4833404;29;20050;-80
2023/07/09 05:17:41;;;;;;;4.88;3.22;;;22.10;99.90;;;;;;4843216;29;20051;-80
2023/07/09 05:20:09;;;;;;;6.03;3.75;;;22.20;99.90;;;;;;4849579;29;20078;-80
2023/07/09 05:22:35;;;;;;;4.88;2.85;;;22.40;99.90;;;;;;4831621;29;20054;-79
2023/07/09 05:25:02;;;;;;;4.78;2.92;;;22.50;99.90;;;;;;4830967;29;20565;-79
2023/07/09 05:27:29;;;;;;;4.63;2.78;;;22.60;99.90;;;;;;4832883;29;20137;-79
2023/07/09 05:29:56;;;;;;;6.57;2.97;;;22.80;99.90;;;;;;4834748;29;20128;-79
2023/07/09 05:32:22;;;;;;;9.68;3.00;;;22.90;99.90;;;;;;4831844;29;20053;-80
2023/07/09 05:34:49;;;;;;;5.53;3.38;;;23.00;99.90;;;;;;4835030;29;20098;-79
2023/07/09 05:37:16;;;;;;;4.00;2.58;;;23.10;99.90;;;;;;4832241;29;20058;-81
2023/07/09 05:39:43;;;;;;;8.77;5.80;;;23.20;99.90;;;;;;4828825;29;20649;-80
2023/07/09 05:42:09;;;;;;;5.38;4.00;;;23.30;99.90;;;;;;4834557;29;20118;-80
2023/07/09 05:44:36;;;;;;;5.93;3.80;;;23.30;99.90;;;;;;4835158;29;20107;-80
2023/07/09 05:47:03;;;;;;;7.03;3.67;;;23.40;99.90;;;;;;4821116;29;20058;-80
2023/07/09 05:49:30;;;;;;;3.47;2.78;;;23.40;99.90;;;;;;4838559;29;20054;-80
2023/07/09 05:51:56;;;;;;;6.22;2.83;;;23.40;99.90;;;;;;4837819;29;20054;-80
2023/07/09 05:54:23;;;;;;;5.53;3.42;;;23.30;99.90;;;;;;4848257;29;20681;-80
2023/07/09 05:56:50;;;;;;;9.18;3.78;;;23.40;99.90;;;;;;4839959;29;20050;-80
2023/07/09 05:59:17;;;;;;;6.93;3.47;;;23.30;99.90;;;;;;4838448;29;20074;-80
2023/07/09 06:01:43;;;;;;;6.10;3.22;;;23.40;99.90;;;;;;4837691;29;20510;-80
2023/07/09 06:04:13;;;;;;;4.78;3.30;;;23.40;99.90;;;;;;4836257;29;20046;-80
2023/07/09 06:06:41;;;;;;;;;;;23.40;99.90;;;;;;4834235;29;20062;-79
2023/07/09 06:09:08;;;;;;;6.93;3.30;;;23.40;99.90;;;;;;4830498;29;20439;-80
2023/07/09 06:11:35;;;;;;;5.30;3.58;;;23.40;99.90;;;;;;4837075;29;20058;-80
2023/07/09 06:14:02;;;;;;;5.60;3.47;;;23.40;99.90;;;;;;4836134;29;20753;-80
2023/07/09 06:16:29;;;;;;;5.07;3.45;;;23.40;99.90;;;;;;4834780;29;20439;-79
2023/07/09 06:18:56;;;;;;;7.35;3.63;;;23.40;99.90;;;;;;4834402;29;20050;-79
2023/07/09 06:21:22;;;;;;;6.78;3.17;;;23.40;99.90;;;;;;4834995;29;20079;-79
2023/07/09 06:23:49;;;;;;;5.75;3.45;;;23.40;99.90;;;;;;4829369;29;20089;-80
2023/07/09 06:26:16;;;;;;;6.22;3.78;;;23.40;99.90;;;;;;4831949;29;20062;-79
2023/07/09 06:28:43;;;;;;;7.63;3.90;;;23.50;99.90;;;;;;4841158;29;20437;-81
2023/07/09 06:31:09;;;;;;;11.85;3.90;;;23.50;99.90;;;;;;4838484;29;20050;-80
2023/07/09 06:33:36;;;;;;;7.13;3.75;;;23.50;99.90;;;;;;4831651;29;20054;-80
2023/07/09 06:36:04;;;;;;;6.10;4.15;;;23.50;99.90;;;;;;4834270;29;20054;-79
2023/07/09 06:38:31;;;;;;;6.88;3.55;;;23.50;99.90;;;;;;4836357;29;20050;-79
2023/07/09 06:40:58;;;;;;;5.18;3.58;;;23.50;99.90;;;;;;4832145;29;20104;-79
2023/07/09 06:43:25;;;;;;;6.32;3.60;;;23.50;99.90;;;;;;4837272;29;20080;-79
2023/07/09 06:45:58;;;;;;;5.72;3.80;;;23.60;99.90;;;;;;4837567;29;20114;-79
2023/07/09 06:48:27;;;;;;;6.90;3.95;;;23.60;99.90;;;;;;4816570;29;20058;-79
2023/07/09 06:50:55;;;;;;;9.25;4.07;;;23.60;99.90;;;;;;4835518;29;20050;-80
2023/07/09 06:53:23;;;;;;;7.47;3.83;;;23.60;99.90;;;;;;4834255;29;20058;-80
2023/07/09 06:55:50;;;;;;;6.60;3.40;;;23.60;99.90;;;;;;4838407;29;20135;-80
2023/07/09 06:58:17;;;;;;;7.25;3.70;;;23.60;99.90;;;;;;4843725;29;20496;-80
2023/07/09 07:00:44;;;;;;;6.03;3.55;;;23.60;99.90;;;;;;4841804;29;20054;-80
2023/07/09 07:03:11;;;;;;;8.23;4.63;;;23.60;99.90;;;;;;4836908;29;20159;-80
2023/07/09 07:05:46;;;;;;;8.57;3.90;;;23.60;99.90;;;;;;4843361;29;20059;-80
2023/07/09 07:08:15;;;;;;;7.82;4.07;;;23.60;99.90;;;;;;4836967;29;20099;-80
2023/07/09 07:10:42;;;;;;;6.18;3.63;;;23.70;99.90;;;;;;4847433;29;20065;-80
2023/07/09 07:13:10;;;;;;;7.38;4.38;;;23.70;99.90;;;;;;4850932;29;20042;-80
2023/07/09 07:15:38;;;;;;;8.02;4.00;;;23.70;99.90;;;;;;4839880;29;20578;-80
2023/07/09 07:18:06;;;;;;;8.55;4.75;;;23.70;99.90;;;;;;4844253;29;20054;-80
2023/07/09 07:20:34;;;;;;;13.70;4.30;;;23.80;99.90;;;;;;4865336;29;20050;-79
2023/07/09 07:23:00;;;;;;;7.97;4.82;;;23.80;99.90;;;;;;4839821;29;20050;-80
2023/07/09 07:25:27;;;;;;;8.20;3.85;;;23.80;99.90;;;;;;4838926;29;20060;-79
2023/07/09 07:27:54;;;;;;;9.90;4.07;;;23.90;99.90;;;;;;4839363;29;20058;-80
2023/07/09 07:30:21;;;;;;;6.47;4.13;;;23.90;99.90;;;;;;4838772;29;20065;-80
2023/07/09 07:32:51;;;;;;;4.88;3.72;;;23.90;99.90;;;;;;4834073;29;20097;-80
2023/07/09 07:35:19;;;;;;;7.40;3.85;;;24.00;99.90;;;;;;4822229;29;20046;-80
2023/07/09 07:37:46;;;;;;;6.43;3.17;;;24.00;99.90;;;;;;4836130;29;20089;-79
2023/07/09 07:40:12;;;;;;;8.50;4.03;;;24.10;99.90;;;;;;4836014;29;20050;-79
2023/07/09 07:42:39;;;;;;;7.03;4.30;;;24.10;99.90;;;;;;4837511;29;20619;-80
2023/07/09 07:45:07;;;;;;;5.78;3.92;;;24.10;99.90;;;;;;4835559;29;20058;-80
2023/07/09 07:47:35;;;;;;;6.22;3.67;;;24.20;99.90;;;;;;4829531;29;20102;-80
2023/07/09 07:50:05;;;;;;;7.70;4.30;;;24.20;99.90;;;;;;4836364;29;20089;-80
2023/07/09 07:52:32;;;;;;;6.75;3.80;;;24.20;99.90;;;;;;4832813;29;20157;-80
2023/07/09 07:54:58;;;;;;;10.18;4.05;;;24.30;99.90;;;;;;4832175;29;20055;-80
2023/07/09 07:57:26;;;;;;;6.05;3.97;;;24.30;99.90;;;;;;4835465;29;20411;-79
2023/07/09 07:59:52;;;;;;;8.63;4.57;;;24.30;99.90;;;;;;4837431;29;20479;-80
2023/07/09 08:02:19;;;;;;;9.25;4.50;;;24.40;99.90;;;;;;4819078;29;20053;-80
2023/07/09 08:04:46;;;;;;;7.13;3.90;;;24.40;99.90;;;;;;4823159;29;20084;-80
2023/07/09 08:07:13;;;;;;;7.70;4.20;;;24.40;99.90;;;;;;4837555;29;20053;-80
2023/07/09 08:09:40;;;;;;;5.50;3.83;;;24.50;99.90;;;;;;4835225;29;20065;-80
2023/07/09 08:12:12;;;;;;;5.90;3.47;;;24.50;99.90;;;;;;4841249;29;20058;-80
2023/07/09 08:14:44;;;;;;;5.22;3.67;;;24.50;99.90;;;;;;4839311;29;20107;-81
2023/07/09 08:17:11;;;;;;;7.85;3.20;;;24.60;99.90;;;;;;4833785;29;20045;-80
2023/07/09 08:19:53;;;;;;;7.45;3.78;;;24.60;99.90;;;;;;4849817;29;20071;-80
2023/07/09 08:22:21;;;;;;;4.78;3.50;;;24.70;99.90;;;;;;4836072;29;20047;-80
2023/07/09 08:24:49;;;;;;;7.25;3.80;;;24.70;99.90;;;;;;4839407;29;20056;-81
2023/07/09 08:27:16;;;;;;;6.18;3.47;;;24.80;99.90;;;;;;4836003;29;20058;-80
2023/07/09 08:29:43;;;;;;;4.55;3.72;;;24.80;99.90;;;;;;4838072;29;20050;-80
2023/07/09 08:32:11;;;;;;;5.60;3.83;;;24.80;99.90;;;;;;4833617;29;20110;-80
2023/07/09 08:34:39;;;;;;;8.50;5.28;;;24.90;99.90;;;;;;4835721;29;20054;-80
2023/07/09 08:37:25;;;;;;;5.88;3.72;;;24.90;99.90;;;;;;4835781;29;20051;-80
2023/07/09 08:39:52;;;;;;;9.55;3.70;;;25.00;99.90;;;;;;4838513;29;20070;-80
2023/07/09 08:42:39;;;;;;;6.25;3.88;;;25.00;99.90;;;;;;4836926;29;20058;-80
2023/07/09 08:45:44;;;;;;;4.78;3.53;;;25.10;99.90;;;;;;4836522;29;20058;-80
2023/07/09 08:48:32;;;;;;;6.70;3.55;;;25.10;99.90;;;;;;4831512;29;20054;-80
2023/07/09 08:51:18;;;;;;;11.88;3.83;;;25.20;99.90;;;;;;4838556;29;20057;-80
2023/07/09 08:53:58;;;;;;;8.43;3.47;;;25.20;99.90;;;;;;4841220;29;20092;-80
2023/07/09 08:56:31;;;;;;;4.63;3.70;;;25.30;99.90;;;;;;4833662;29;20094;-80
2023/07/09 08:59:01;;;;;;;8.20;3.95;;;25.40;99.90;;;;;;4851188;29;20058;-80
2023/07/09 09:01:45;;;;;;;10.40;3.92;;;25.40;99.90;;;;;;4833974;29;20055;-80
2023/07/09 09:04:24;;;;;;;8.38;4.10;;;25.50;99.90;;;;;;4833386;29;20054;-80
2023/07/09 09:07:19;;;;;;;5.43;3.65;;;25.60;99.90;;;;;;4835567;29;20437;-81
2023/07/09 09:10:01;;;;;;;8.73;4.35;;;25.60;99.90;;;;;;4837412;29;20141;-80
2023/07/09 09:12:36;;;;;;;8.35;3.85;;;25.70;99.90;;;;;;4848547;29;20058;-80
2023/07/09 09:15:14;;;;;;;5.70;3.55;;;25.90;99.90;;;;;;4838610;29;20111;-80
2023/07/09 09:17:42;;;;;;;7.20;3.67;;;25.90;99.90;;;;;;4828792;29;20082;-80
2023/07/09 09:20:19;;;;;;;4.85;3.22;;;26.00;99.90;;;;;;4834609;29;20098;-80
2023/07/09 09:23:10;;;;;;;5.10;3.53;;;26.10;99.90;;;;;;4839118;29;20500;-79
2023/07/09 09:25:41;;;;;;;6.43;3.45;;;26.20;99.90;;;;;;4837419;29;20054;-80
2023/07/09 09:28:07;;;;;;;5.45;3.60;;;26.30;99.90;;;;;;4834165;29;20046;-80
2023/07/09 09:30:34;;;;;;;4.47;3.42;;;26.40;99.90;;;;;;4837252;29;20088;-80
2023/07/09 09:33:06;;;;;;;4.85;3.28;;;26.50;99.90;;;;;;4831484;29;20050;-80
2023/07/09 09:35:39;;;;;;;4.28;3.25;;;26.60;99.90;;;;;;4854193;29;20076;-79
2023/07/09 09:38:16;;;;;;;5.63;3.72;;;26.70;99.90;;;;;;4838739;29;20083;-80
2023/07/09 09:40:43;;;;;;;5.78;3.20;;;26.80;99.90;;;;;;4836840;29;20078;-80
2023/07/09 09:43:16;;;;;;;6.70;3.33;;;26.80;99.90;;;;;;4849684;29;20062;-80
2023/07/09 09:45:44;;;;;;;6.38;3.92;;;26.90;99.90;;;;;;4834846;29;20373;-80
2023/07/09 09:48:18;;;;;;;8.25;3.03;;;27.00;99.90;;;;;;4831012;29;20089;-79
2023/07/09 09:50:46;;;;;;;7.35;3.55;;;27.10;99.90;;;;;;4852749;29;20054;-81
2023/07/09 09:53:24;;;;;;;7.30;3.53;;;27.10;99.90;;;;;;4841705;29;20054;-80
2023/07/09 09:55:54;;;;;;;4.50;3.45;;;27.20;99.90;;;;;;4832047;29;20061;-80
2023/07/09 09:58:29;;;;;;;4.72;3.28;;;27.30;99.90;;;;;;4834485;29;20081;-80
2023/07/09 10:00:58;;;;;;;8.02;3.17;;;27.30;99.90;;;;;;4834325;29;20054;-80
2023/07/09 10:03:36;;;;;;;6.40;3.78;;;27.40;99.90;;;;;;4830841;29;20057;-80
2023/07/09 10:06:17;;;;;;;6.43;3.20;;;27.50;99.90;;;;;;4838735;29;20050;-81
2023/07/09 10:09:06;;;;;;;5.15;3.20;;;27.60;99.90;;;;;;4835267;29;20050;-80
2023/07/09 10:11:54;;;;;;;9.57;3.47;;;27.70;99.90;;;;;;4832230;29;20047;-81
2023/07/09 10:14:34;;;;;;;6.13;3.33;;;27.80;99.90;;;;;;4820708;29;20510;-81
2023/07/09 10:17:12;;;;;;;6.45;3.47;;;27.90;99.90;;;;;;4829881;29;20073;-80
2023/07/09 10:19:49;;;;;;;8.93;3.40;;;27.90;99.90;;;;;;4836291;29;20531;-80
2023/07/09 10:22:40;;;;;;;6.30;3.60;;;28.00;99.90;;;;;;4840280;29;20065;-80
2023/07/09 10:25:13;;;;;;;5.20;3.05;;;28.10;99.90;;;;;;4836669;29;20084;-80
2023/07/09 10:27:52;;;;;;;5.13;3.33;;;28.10;99.90;;;;;;4833249;29;20054;-80
2023/07/09 10:30:52;;;;;;;7.20;3.60;;;28.10;99.90;;;;;;4841434;29;20050;-81
2023/07/09 10:33:34;;;;;;;5.32;3.20;;;28.20;99.90;;;;;;4836446;29;20054;-80
2023/07/09 10:36:22;;;;;;;5.78;3.80;;;28.30;99.90;;;;;;4841775;29;20104;-80
2023/07/09 10:38:56;;;;;;;7.85;3.35;;;28.40;99.90;;;;;;4843725;29;20405;-81
2023/07/09 10:41:25;;;;;;;4.95;3.15;;;28.40;99.90;;;;;;4822050;29;20114;-80
2023/07/09 10:44:15;;;;;;;5.47;3.50;;;28.40;99.90;;;;;;4844014;29;20109;-81
2023/07/09 10:46:47;;;;;;;6.50;2.97;;;28.50;99.90;;;;;;4849868;29;20064;-80
2023/07/09 10:49:17;;;;;;;7.45;3.95;;;28.50;99.90;;;;;;4846899;29;20102;-81
2023/07/09 10:51:59;;;;;;;7.35;3.25;;;28.60;99.90;;;;;;4847619;29;20073;-79
2023/07/09 10:54:49;;;;;;;5.15;3.40;;;28.60;99.90;;;;;;4852707;29;20057;-79
2023/07/09 10:57:29;;;;;;;4.90;3.10;;;28.60;99.90;;;;;;4845277;29;20054;-80
2023/07/09 10:59:57;;;;;;;4.57;3.08;;;28.70;99.90;;;;;;4823669;29;20110;-80
2023/07/09 11:02:29;;;;;;;3.97;3.10;;;28.70;99.90;;;;;;4840890;29;20496;-80
2023/07/09 11:05:05;;;;;;;7.35;3.58;;;28.80;99.90;;;;;;4840295;29;20050;-80
2023/07/09 11:07:54;;;;;;;4.55;3.08;;;28.80;99.90;;;;;;4819880;29;20049;-80
2023/07/09 11:10:31;;;;;;;6.82;3.90;;;28.80;99.90;;;;;;4835074;29;20114;-80
2023/07/09 11:13:17;;;;;;;8.13;3.65;;;28.80;99.90;;;;;;4834963;29;20047;-81
2023/07/09 11:15:48;;;;;;;4.57;3.63;;;28.90;99.90;;;;;;4837617;29;20568;-80
2023/07/09 11:18:29;;;;;;;6.70;4.40;;;28.90;99.90;;;;;;4840190;29;20592;-80
2023/07/09 11:21:15;;;;;;;7.72;3.40;;;29.00;99.90;;;;;;4852328;29;20473;-80
2023/07/09 11:24:00;;;;;;;4.90;3.05;;;29.00;99.90;;;;;;4838906;29;20080;-80
2023/07/09 11:26:29;;;;;;;5.05;3.60;;;29.10;99.90;;;;;;4832702;29;20526;-80
2023/07/09 11:29:14;;;;;;;4.40;3.17;;;29.10;99.90;;;;;;4850741;29;20092;-80
2023/07/09 11:31:46;;;;;;;6.55;3.65;;;29.20;99.90;;;;;;4838091;29;20339;-80
2023/07/09 11:34:12;;;;;;;6.93;3.50;;;29.30;99.90;;;;;;4841921;29;20121;-80
2023/07/09 11:36:57;;;;;;;7.53;3.28;;;29.40;99.90;;;;;;4837557;29;20053;-80
2023/07/09 11:39:35;;;;;;;9.00;3.10;;;29.50;99.90;;;;;;4836726;29;20042;-80
2023/07/09 11:42:03;;;;;;;4.05;3.50;;;29.60;99.90;;;;;;4830337;29;20046;-80
2023/07/09 11:44:32;;;;;;;5.40;3.40;;;29.60;99.90;;;;;;4837911;29;20057;-80
2023/07/09 11:47:18;;;;;;;7.35;3.10;;;29.70;99.90;;;;;;4836294;29;20106;-80
2023/07/09 11:49:54;;;;;;;5.47;3.10;;;29.80;99.90;;;;;;4838990;29;20102;-80
2023/07/09 11:52:45;;;;;;;8.35;3.55;;;29.80;99.90;;;;;;4853502;29;20140;-80
2023/07/09 11:55:36;;;;;;;6.22;3.35;;;29.80;99.90;;;;;;4836080;29;20071;-80
2023/07/09 11:58:04;;;;;;;6.57;3.42;;;29.90;99.90;;;;;;4836269;29;20046;-80
2023/07/09 12:00:39;;;;;;;6.88;3.30;;;29.90;99.90;;;;;;4839739;29;20050;-80
2023/07/09 12:03:11;;;;;;;4.22;2.72;;;30.10;99.90;;;;;;4839364;29;20047;-80
2023/07/09 12:05:38;;;;;;;5.25;2.67;;;30.10;99.90;;;;;;4819191;29;20109;-80
2023/07/09 12:08:07;;;;;;;4.75;2.85;;;30.20;99.90;;;;;;4838866;29;20466;-80
2023/07/09 12:10:35;;;;;;;8.38;3.10;;;30.20;99.90;;;;;;4834773;29;20074;-80
2023/07/09 12:13:03;;;;;;;4.85;3.08;;;30.30;99.90;;;;;;4836792;29;20054;-80
2023/07/09 12:15:34;;;;;;;4.15;2.97;;;30.30;99.90;;;;;;4839251;29;20098;-80
2023/07/09 12:18:04;;;;;;;5.32;3.05;;;30.40;99.90;;;;;;4840693;29;20073;-80
2023/07/09 12:20:35;;;;;;;5.30;2.92;;;30.50;99.90;;;;;;4836462;29;20102;-80
2023/07/09 12:23:28;;;;;;;5.35;3.17;;;30.50;99.90;;;;;;4852826;29;20075;-80
2023/07/09 12:25:59;;;;;;;3.67;2.85;;;30.60;99.90;;;;;;4832465;29;20062;-80
2023/07/09 12:28:27;;;;;;;7.82;2.85;;;30.60;99.90;;;;;;4837470;29;20105;-81
2023/07/09 12:30:54;;;;;;;4.50;2.35;;;30.60;99.90;;;;;;4841845;29;20721;-81
2023/07/09 12:33:26;;;;;;;8.35;2.92;;;30.70;99.90;;;;;;4840614;29;20465;-81
2023/07/09 12:35:57;;;;;;;5.53;2.60;;;30.70;99.90;;;;;;4838971;29;20568;-80
2023/07/09 12:38:26;;;;;;;5.15;2.72;;;30.70;99.90;;;;;;4839372;29;20046;-81
2023/07/09 12:40:54;;;;;;;5.72;2.75;;;30.80;99.90;;;;;;4833442;29;20047;-81
2023/07/09 12:43:31;;;;;;;5.72;2.45;;;30.80;99.90;;;;;;4838551;29;20717;-80
2023/07/09 12:46:01;;;;;;;4.88;2.35;;;30.90;99.90;;;;;;4840298;29;20050;-80
2023/07/09 12:48:30;;;;;;;6.68;2.90;;;31.00;99.90;;;;;;4842056;29;20268;-81
2023/07/09 12:50:59;;;;;;;4.03;2.38;;;31.00;99.90;;;;;;4840485;29;20058;-80
2023/07/09 12:53:28;;;;;;;6.20;2.53;;;31.10;99.90;;;;;;4845977;29;20056;-79
2023/07/09 12:55:57;;;;;;;3.70;2.42;;;31.20;99.90;;;;;;4836445;29;20055;-80
2023/07/09 12:58:30;;;;;;;3.60;2.20;;;31.20;99.90;;;;;;4837509;29;20053;-80
2023/07/09 13:00:57;;;;;;;2.90;2.10;;;31.30;99.90;;;;;;4838620;29;20089;-80
2023/07/09 13:03:27;;;;;;;5.07;2.97;;;31.30;99.90;;;;;;4853546;29;20046;-80
2023/07/09 13:06:05;;;;;;;3.90;2.50;;;31.30;99.90;;;;;;4833320;29;20137;-80